Time;durP1;ratioP1;P1;durP2;ratioP2;P2;SDS_P1;SDS_P2;PMS_P1;PMS_P2;Temp;Humidity;BMP_temperature;BMP_pressure;BME280_temperature;BME280_humidity;BME280_pressure;Samples;Min_cycle;Max_cycle;Signal;HPM_P1;HPM_P2
2023/08/30 00:01:05;;;;;;;4.15;2.00;;;15.80;99.90;;;;;;4967461;28;20047;-62
2023/08/30 00:03:32;;;;;;;5.93;2.47;;;15.90;99.90;;;;;;4952132;28;20054;-63
2023/08/30 00:06:05;;;;;;;4.70;1.95;;;16.00;99.90;;;;;;4961609;28;20087;-61
2023/08/30 00:08:32;;;;;;;;;;;15.90;99.90;;;;;;4949379;28;20053;-60
2023/08/30 00:10:59;;;;;;;3.72;2.08;;;15.90;99.90;;;;;;4968586;28;19968;-61
2023/08/30 00:13:26;;;;;;;8.05;3.53;;;15.90;99.90;;;;;;4967353;28;20108;-61
2023/08/30 00:15:53;;;;;;;4.22;2.33;;;15.80;99.90;;;;;;4967726;28;20047;-62
2023/08/30 00:18:20;;;;;;;7.97;3.05;;;15.80;99.90;;;;;;4967085;28;20395;-61
2023/08/30 00:20:47;;;;;;;5.57;2.20;;;15.70;99.90;;;;;;4950670;28;20046;-62
2023/08/30 00:23:14;;;;;;;4.07;2.47;;;15.70;99.90;;;;;;4967889;28;20533;-61
2023/08/30 00:25:40;;;;;;;8.02;2.60;;;15.60;99.90;;;;;;4968831;28;20047;-61
2023/08/30 00:28:07;;;;;;;4.03;2.60;;;15.60;99.90;;;;;;4968375;28;20046;-62
2023/08/30 00:30:35;;;;;;;8.25;2.45;;;15.50;99.90;;;;;;4968459;28;20042;-62
2023/08/30 00:33:02;;;;;;;4.40;2.63;;;15.50;99.90;;;;;;4968845;28;20503;-60
2023/08/30 00:35:29;;;;;;;3.42;2.13;;;15.50;99.90;;;;;;4967191;28;20042;-60
2023/08/30 00:37:56;;;;;;;5.10;3.20;;;15.50;99.90;;;;;;4967568;28;20102;-61
2023/08/30 00:40:26;;;;;;;3.30;1.75;;;15.50;99.90;;;;;;4967170;28;20043;-61
2023/08/30 00:42:53;;;;;;;6.10;2.28;;;15.50;99.90;;;;;;4968557;28;20494;-62
2023/08/30 00:45:20;;;;;;;7.25;2.80;;;15.50;99.90;;;;;;4968287;28;20539;-62
2023/08/30 00:47:47;;;;;;;3.30;2.00;;;15.50;99.90;;;;;;4968284;28;20051;-62
2023/08/30 00:50:14;;;;;;;6.30;2.40;;;15.50;99.90;;;;;;4969935;28;20090;-62
2023/08/30 00:52:41;;;;;;;6.63;2.33;;;15.50;99.90;;;;;;4955008;28;20058;-62
2023/08/30 00:55:08;;;;;;;4.53;2.00;;;15.40;99.90;;;;;;4972585;28;20047;-62
2023/08/30 00:57:35;;;;;;;5.45;2.15;;;15.30;99.90;;;;;;4954879;28;20051;-62
2023/08/30 01:00:03;;;;;;;3.05;1.90;;;15.40;99.90;;;;;;4972558;28;20047;-61
2023/08/30 01:02:31;;;;;;;3.22;1.85;;;15.30;99.90;;;;;;4971922;28;20054;-62
2023/08/30 01:04:58;;;;;;;2.83;1.45;;;15.20;99.90;;;;;;4954862;28;20134;-62
2023/08/30 01:07:27;;;;;;;3.17;1.80;;;15.20;99.90;;;;;;4970721;28;20050;-61
2023/08/30 01:09:54;;;;;;;4.10;2.30;;;15.10;99.90;;;;;;4972046;28;20039;-62
2023/08/30 01:12:23;;;;;;;4.78;1.83;;;15.10;99.90;;;;;;4970928;28;20059;-62
2023/08/30 01:15:10;;;;;;;4.88;2.40;;;15.10;99.90;;;;;;4971941;28;20046;-62
2023/08/30 01:17:38;;;;;;;7.82;2.22;;;15.20;99.90;;;;;;4964224;28;20195;-62
2023/08/30 01:20:16;;;;;;;5.32;2.55;;;15.30;99.90;;;;;;4954573;28;20066;-63
2023/08/30 01:22:54;;;;;;;5.47;1.88;;;15.30;99.90;;;;;;4963741;28;20054;-62
2023/08/30 01:25:56;;;;;;;7.28;1.80;;;15.30;99.90;;;;;;4970220;28;20490;-62
2023/08/30 01:28:24;;;;;;;4.88;2.58;;;15.20;99.90;;;;;;4950271;28;20121;-62
2023/08/30 01:30:54;;;;;;;6.22;1.92;;;15.20;99.90;;;;;;4954883;28;20113;-60
2023/08/30 01:33:21;;;;;;;5.68;1.92;;;15.20;99.90;;;;;;4954575;28;20054;-61
2023/08/30 01:35:48;;;;;;;5.43;1.77;;;15.20;99.90;;;;;;4970612;28;20051;-61
2023/08/30 01:38:14;;;;;;;4.07;2.00;;;15.10;99.90;;;;;;4971906;28;20050;-61
2023/08/30 01:40:42;;;;;;;3.10;1.73;;;15.10;99.90;;;;;;4954361;28;20051;-61
2023/08/30 01:43:10;;;;;;;4.20;2.17;;;15.10;99.90;;;;;;4971574;28;20113;-61
2023/08/30 01:45:43;;;;;;;9.20;2.55;;;15.10;99.90;;;;;;4970971;28;20054;-60
2023/08/30 01:48:15;;;;;;;3.72;1.48;;;15.10;99.90;;;;;;4971384;28;20055;-60
2023/08/30 01:50:42;;;;;;;7.88;2.58;;;15.00;99.90;;;;;;4626735;28;10000690;-60
2023/08/30 01:53:11;;;;;;;5.35;2.58;;;15.00;99.90;;;;;;4970638;28;20568;-61
2023/08/30 01:55:38;;;;;;;5.45;2.10;;;15.00;99.90;;;;;;4953893;28;20111;-61
2023/08/30 01:58:06;;;;;;;5.70;2.65;;;15.00;99.90;;;;;;4969894;28;20057;-61
2023/08/30 02:00:33;;;;;;;6.28;2.38;;;14.90;99.90;;;;;;4970328;28;20086;-61
2023/08/30 02:03:00;;;;;;;5.85;1.92;;;14.90;99.90;;;;;;4969106;28;20046;-61
2023/08/30 02:05:26;;;;;;;10.80;2.30;;;14.90;99.90;;;;;;4973078;28;20284;-61
2023/08/30 02:08:16;;;;;;;9.52;2.83;;;14.90;99.90;;;;;;4953967;28;20113;-61
2023/08/30 02:10:52;;;;;;;6.32;2.40;;;14.80;99.90;;;;;;4969456;28;20070;-61
2023/08/30 02:13:21;;;;;;;6.05;2.13;;;14.80;99.90;;;;;;4969513;28;20078;-61
2023/08/30 02:15:47;;;;;;;4.35;2.03;;;14.70;99.90;;;;;;4966410;28;20038;-61
2023/08/30 02:18:15;;;;;;;7.00;2.22;;;14.60;99.90;;;;;;4971224;28;20078;-61
2023/08/30 02:20:41;;;;;;;11.68;2.70;;;14.50;99.90;;;;;;4970903;28;20050;-60
2023/08/30 02:23:09;;;;;;;6.60;2.25;;;14.50;99.90;;;;;;4954402;28;20276;-62
2023/08/30 02:25:41;;;;;;;8.00;2.50;;;14.50;99.90;;;;;;4969478;28;20059;-62
2023/08/30 02:28:07;;;;;;;9.10;2.90;;;14.40;99.90;;;;;;4971215;28;20055;-60
2023/08/30 02:30:35;;;;;;;6.93;2.42;;;14.40;99.90;;;;;;4953557;28;20043;-60
2023/08/30 02:33:02;;;;;;;5.18;2.33;;;14.30;99.90;;;;;;4969523;28;20046;-60
2023/08/30 02:35:28;;;;;;;6.95;2.13;;;14.40;99.90;;;;;;4971784;28;20047;-60
2023/08/30 02:37:55;;;;;;;7.05;2.22;;;14.40;99.90;;;;;;4970985;28;20051;-60
2023/08/30 02:40:22;;;;;;;7.68;2.22;;;14.40;99.90;;;;;;4970567;28;20525;-60
2023/08/30 02:42:49;;;;;;;7.65;2.35;;;14.40;99.90;;;;;;4970537;28;20109;-61
2023/08/30 02:45:15;;;;;;;5.53;3.08;;;14.30;99.90;;;;;;4970479;28;20047;-61
2023/08/30 02:47:44;;;;;;;6.10;2.67;;;14.20;99.90;;;;;;4970116;28;20672;-61
2023/08/30 02:50:11;;;;;;;12.55;2.85;;;14.10;99.90;;;;;;4978696;28;20513;-60
2023/08/30 02:52:37;;;;;;;6.18;2.42;;;14.10;99.90;;;;;;4970371;28;20344;-61
2023/08/30 02:55:05;;;;;;;7.35;2.88;;;14.10;99.90;;;;;;4970574;28;20062;-60
2023/08/30 02:57:31;;;;;;;7.18;2.95;;;14.10;99.90;;;;;;4967131;28;20384;-61
2023/08/30 02:59:58;;;;;;;7.00;2.88;;;14.10;99.90;;;;;;4970350;28;20051;-60
2023/08/30 03:02:25;;;;;;;13.77;3.17;;;14.20;99.90;;;;;;4968030;28;20494;-60
2023/08/30 03:04:52;;;;;;;12.75;3.35;;;14.20;99.90;;;;;;4970090;28;20066;-60
2023/08/30 03:07:19;;;;;;;5.97;2.40;;;14.20;99.90;;;;;;4968991;28;20053;-60
2023/08/30 03:09:46;;;;;;;4.78;2.50;;;14.20;99.90;;;;;;4970341;28;20043;-61
2023/08/30 03:12:12;;;;;;;8.95;2.90;;;14.10;99.90;;;;;;4970039;28;20051;-61
2023/08/30 03:14:39;;;;;;;6.45;3.03;;;14.10;99.90;;;;;;4970058;28;20548;-60
2023/08/30 03:17:06;;;;;;;7.32;2.83;;;14.10;99.90;;;;;;4953131;28;20498;-62
2023/08/30 03:19:33;;;;;;;4.28;2.17;;;14.10;99.90;;;;;;4969740;28;20047;-61
2023/08/30 03:22:00;;;;;;;9.45;2.60;;;14.20;99.90;;;;;;4970111;28;20050;-60
2023/08/30 03:24:26;;;;;;;7.10;3.10;;;14.10;99.90;;;;;;4969722;28;20051;-61
2023/08/30 03:26:53;;;;;;;3.95;2.33;;;14.10;99.90;;;;;;4966908;28;20043;-61
2023/08/30 03:29:20;;;;;;;7.90;3.17;;;14.10;99.90;;;;;;4969737;28;20058;-61
2023/08/30 03:31:47;;;;;;;7.65;3.13;;;14.10;99.90;;;;;;4969453;28;20043;-61
2023/08/30 03:34:14;;;;;;;10.82;3.10;;;14.10;99.90;;;;;;4969477;28;20086;-61
2023/08/30 03:36:43;;;;;;;7.63;2.55;;;14.10;99.90;;;;;;4969318;28;20195;-61
2023/08/30 03:39:12;;;;;;;11.32;3.17;;;14.10;99.90;;;;;;4969405;28;20054;-62
2023/08/30 03:41:39;;;;;;;8.32;2.70;;;14.00;99.90;;;;;;4969393;28;20127;-61
2023/08/30 03:44:05;;;;;;;6.05;2.40;;;13.90;99.90;;;;;;4969447;28;20055;-62
2023/08/30 03:46:32;;;;;;;8.60;2.95;;;13.80;99.90;;;;;;4967922;28;20101;-61
2023/08/30 03:48:59;;;;;;;6.90;2.90;;;13.80;99.90;;;;;;4968620;28;20088;-61
2023/08/30 03:51:26;;;;;;;9.18;3.13;;;13.80;99.90;;;;;;4969023;28;20051;-61
2023/08/30 03:53:53;;;;;;;5.43;2.33;;;13.80;99.90;;;;;;4969265;28;20047;-61
2023/08/30 03:56:20;;;;;;;9.05;2.95;;;13.70;99.90;;;;;;4969511;28;20081;-61
2023/08/30 03:58:46;;;;;;;8.07;2.92;;;13.70;99.90;;;;;;4968489;28;20042;-61
2023/08/30 04:01:13;;;;;;;14.15;3.00;;;13.70;99.90;;;;;;4951735;28;20047;-61
2023/08/30 04:03:40;;;;;;;12.98;3.13;;;13.60;99.90;;;;;;4968791;28;20105;-61
2023/08/30 04:06:07;;;;;;;11.93;3.53;;;13.60;99.90;;;;;;4976540;28;20051;-61
2023/08/30 04:08:34;;;;;;;9.35;2.95;;;13.60;99.90;;;;;;4970706;28;20050;-60
2023/08/30 04:11:01;;;;;;;8.18;3.00;;;13.60;99.90;;;;;;4968582;28;20055;-61
2023/08/30 04:13:28;;;;;;;7.45;3.15;;;13.50;99.90;;;;;;4973966;28;20054;-60
2023/08/30 04:15:58;;;;;;;11.35;2.95;;;13.50;99.90;;;;;;4967153;28;20121;-61
2023/08/30 04:18:25;;;;;;;9.75;2.83;;;13.50;99.90;;;;;;4968614;28;20109;-60
2023/08/30 04:20:52;;;;;;;10.18;2.83;;;13.40;99.90;;;;;;4968831;28;20114;-61
2023/08/30 04:23:18;;;;;;;7.85;3.25;;;13.40;99.90;;;;;;4968025;28;20101;-61
2023/08/30 04:25:45;;;;;;;9.73;3.20;;;13.40;99.90;;;;;;4967868;28;20090;-61
2023/08/30 04:28:12;;;;;;;12.15;3.10;;;13.40;99.90;;;;;;4968789;28;20054;-60
2023/08/30 04:30:39;;;;;;;11.88;3.05;;;13.40;99.90;;;;;;4958376;28;20051;-62
2023/08/30 04:33:06;;;;;;;8.50;3.20;;;13.30;99.90;;;;;;4967197;28;20050;-60
2023/08/30 04:35:33;;;;;;;7.35;3.38;;;13.30;99.90;;;;;;4968463;28;20047;-61
2023/08/30 04:38:00;;;;;;;14.55;3.47;;;13.30;99.90;;;;;;4968347;28;20425;-61
2023/08/30 04:40:28;;;;;;;16.42;3.40;;;13.20;99.90;;;;;;4968540;28;20047;-61
2023/08/30 04:42:55;;;;;;;9.57;3.58;;;13.30;99.90;;;;;;4968552;28;20061;-61
2023/08/30 04:45:22;;;;;;;6.88;3.00;;;13.30;99.90;;;;;;4967659;28;20054;-61
2023/08/30 04:47:49;;;;;;;9.35;3.30;;;13.20;99.90;;;;;;4968391;28;20058;-61
2023/08/30 04:50:17;;;;;;;13.55;4.00;;;13.20;99.90;;;;;;4967967;28;20053;-61
2023/08/30 04:52:43;;;;;;;8.75;2.95;;;13.20;99.90;;;;;;4970142;28;20048;-60
2023/08/30 04:55:10;;;;;;;9.30;3.00;;;13.10;99.90;;;;;;4968039;28;20093;-60
2023/08/30 04:57:37;;;;;;;7.80;3.05;;;13.10;99.90;;;;;;4950720;28;20058;-61
2023/08/30 05:00:05;;;;;;;11.43;3.50;;;13.10;99.90;;;;;;4967985;28;20054;-61
2023/08/30 05:02:32;;;;;;;9.55;3.30;;;13.00;99.90;;;;;;4967866;28;20058;-61
2023/08/30 05:04:59;;;;;;;13.07;3.42;;;13.10;99.90;;;;;;4958489;28;20133;-60
2023/08/30 05:07:25;;;;;;;5.95;3.35;;;13.10;99.90;;;;;;4968349;28;20662;-61
2023/08/30 05:09:52;;;;;;;18.48;4.85;;;13.10;99.90;;;;;;4967827;28;20070;-60
2023/08/30 05:12:19;;;;;;;9.52;2.83;;;13.10;99.90;;;;;;4967928;28;20051;-60
2023/08/30 05:14:46;;;;;;;10.23;3.90;;;13.00;99.90;;;;;;4967658;28;20047;-61
2023/08/30 05:17:13;;;;;;;15.07;4.53;;;13.00;99.90;;;;;;4967903;28;20047;-61
2023/08/30 05:19:39;;;;;;;12.13;3.35;;;13.00;99.90;;;;;;4968126;28;20098;-60
2023/08/30 05:22:07;;;;;;;4.68;2.88;;;13.00;99.90;;;;;;4966820;28;20082;-62
2023/08/30 05:24:34;;;;;;;13.45;4.13;;;12.90;99.90;;;;;;4967790;28;20051;-63
2023/08/30 05:27:01;;;;;;;14.75;3.50;;;12.90;99.90;;;;;;4971688;28;20043;-61
2023/08/30 05:29:28;;;;;;;7.30;3.47;;;12.90;99.90;;;;;;4968126;28;20062;-61
2023/08/30 05:31:55;;;;;;;7.80;3.67;;;12.90;99.90;;;;;;4967672;28;20794;-61
2023/08/30 05:34:23;;;;;;;7.95;3.63;;;12.90;99.90;;;;;;4967819;28;20054;-61
2023/08/30 05:36:50;;;;;;;12.93;3.63;;;12.90;99.90;;;;;;4969152;28;20568;-61
2023/08/30 05:39:17;;;;;;;7.00;3.00;;;12.90;99.90;;;;;;4971274;28;20043;-61
2023/08/30 05:41:44;;;;;;;7.93;3.35;;;12.90;99.90;;;;;;4970424;28;20502;-61
2023/08/30 05:44:11;;;;;;;10.45;4.60;;;12.90;99.90;;;;;;4970832;28;20078;-61
2023/08/30 05:46:37;;;;;;;10.90;3.90;;;12.80;99.90;;;;;;4970748;28;20551;-61
2023/08/30 05:49:04;;;;;;;10.85;3.67;;;12.70;99.90;;;;;;4971289;28;20063;-61
2023/08/30 05:51:31;;;;;;;11.93;4.03;;;12.80;99.90;;;;;;4970882;28;20047;-60
2023/08/30 05:53:58;;;;;;;10.15;3.53;;;12.70;99.90;;;;;;4968949;28;20047;-61
2023/08/30 05:56:24;;;;;;;8.80;3.90;;;12.70;99.90;;;;;;4625046;28;10000220;-64
2023/08/30 05:58:51;;;;;;;14.18;3.60;;;12.70;99.90;;;;;;4968104;28;20055;-62
2023/08/30 06:01:18;;;;;;;13.90;3.50;;;12.70;99.90;;;;;;4966652;28;20101;-61
2023/08/30 06:03:46;;;;;;;7.55;2.88;;;12.70;99.90;;;;;;4949905;28;20054;-62
2023/08/30 06:06:13;;;;;;;8.57;3.30;;;12.70;99.90;;;;;;4967566;28;20079;-62
2023/08/30 06:08:40;;;;;;;14.43;3.63;;;12.60;99.90;;;;;;4967701;28;20138;-61
2023/08/30 06:11:07;;;;;;;11.30;2.65;;;12.60;99.90;;;;;;4967511;28;20054;-61
2023/08/30 06:13:34;;;;;;;11.50;3.17;;;12.70;99.90;;;;;;4966064;28;21275;-61
2023/08/30 06:16:02;;;;;;;10.13;3.15;;;12.70;99.90;;;;;;4967275;28;20058;-61
2023/08/30 06:18:30;;;;;;;9.90;3.15;;;12.70;99.90;;;;;;4967077;28;20050;-61
2023/08/30 06:20:57;;;;;;;13.20;3.75;;;12.70;99.90;;;;;;4967792;28;20105;-62
2023/08/30 06:23:23;;;;;;;7.50;2.75;;;12.80;99.90;;;;;;4967208;28;20121;-62
2023/08/30 06:25:56;;;;;;;11.25;2.97;;;12.80;99.90;;;;;;4965958;28;20039;-61
2023/08/30 06:28:23;;;;;;;7.83;2.70;;;12.80;99.90;;;;;;4967323;28;20047;-62
2023/08/30 06:30:50;;;;;;;6.78;3.03;;;12.80;99.90;;;;;;4966608;28;20800;-62
2023/08/30 06:33:17;;;;;;;6.75;3.00;;;12.80;99.90;;;;;;4966648;28;20054;-64
2023/08/30 06:35:44;;;;;;;16.38;2.80;;;12.90;99.90;;;;;;4966510;28;20105;-61
2023/08/30 06:38:11;;;;;;;8.43;2.55;;;12.80;99.90;;;;;;4965457;28;20450;-60
2023/08/30 06:40:44;;;;;;;10.15;2.65;;;12.80;99.90;;;;;;4966996;28;20506;-62
2023/08/30 06:43:11;;;;;;;10.30;2.60;;;12.80;99.90;;;;;;4966880;28;20145;-61
2023/08/30 06:45:39;;;;;;;11.13;3.05;;;12.80;99.90;;;;;;4966191;28;20558;-61
2023/08/30 06:48:07;;;;;;;7.53;2.50;;;12.90;99.90;;;;;;4966484;28;20391;-61
2023/08/30 06:50:35;;;;;;;10.15;2.80;;;13.00;99.90;;;;;;4966459;28;20066;-61
2023/08/30 06:53:03;;;;;;;8.57;3.30;;;13.00;99.90;;;;;;4966609;28;20051;-61
2023/08/30 06:55:29;;;;;;;11.50;3.10;;;13.10;99.90;;;;;;4965878;28;20081;-61
2023/08/30 06:57:56;;;;;;;10.45;2.72;;;13.20;99.90;;;;;;4971866;28;20051;-61
2023/08/30 07:00:23;;;;;;;12.70;3.20;;;13.20;99.90;;;;;;4966425;28;20043;-61
2023/08/30 07:02:50;;;;;;;5.47;2.53;;;13.30;99.90;;;;;;4966359;28;20058;-61
2023/08/30 07:05:17;;;;;;;9.18;3.28;;;13.30;99.90;;;;;;4965764;28;20055;-61
2023/08/30 07:07:44;;;;;;;9.07;3.00;;;13.30;99.90;;;;;;4966375;28;20113;-61
2023/08/30 07:10:11;;;;;;;7.43;2.35;;;13.40;99.90;;;;;;4966191;28;20054;-62
2023/08/30 07:12:37;;;;;;;9.27;2.33;;;13.40;99.90;;;;;;4966742;28;20105;-61
2023/08/30 07:15:05;;;;;;;13.98;3.58;;;13.40;99.90;;;;;;4966189;28;20077;-61
2023/08/30 07:17:31;;;;;;;8.25;2.65;;;13.30;99.90;;;;;;4965749;28;20074;-62
2023/08/30 07:20:18;;;;;;;5.13;2.03;;;13.40;99.90;;;;;;4965566;28;20063;-60
2023/08/30 07:22:45;;;;;;;11.48;2.85;;;13.50;99.90;;;;;;4964639;28;20105;-60
2023/08/30 07:25:13;;;;;;;14.60;3.78;;;13.60;99.90;;;;;;4965330;28;20058;-60
2023/08/30 07:27:40;;;;;;;9.93;2.50;;;13.50;99.90;;;;;;4965965;28;20398;-59
2023/08/30 07:30:07;;;;;;;11.55;3.10;;;13.50;99.90;;;;;;4957134;28;20711;-59
2023/08/30 07:32:36;;;;;;;8.27;2.28;;;13.50;99.90;;;;;;4965819;28;20288;-59
2023/08/30 07:35:03;;;;;;;12.70;2.78;;;13.50;99.90;;;;;;4969096;28;20481;-60
2023/08/30 07:37:30;;;;;;;10.48;2.67;;;13.50;99.90;;;;;;4976373;28;20255;-62
2023/08/30 07:39:57;;;;;;;8.63;2.85;;;13.60;99.90;;;;;;4972548;28;20055;-59
2023/08/30 07:42:24;;;;;;;10.60;3.80;;;13.60;99.90;;;;;;4964532;28;20141;-59
2023/08/30 07:44:51;;;;;;;15.55;5.70;;;13.70;99.90;;;;;;4965294;28;20616;-60
2023/08/30 07:47:18;;;;;;;15.48;2.63;;;13.80;99.90;;;;;;4965879;28;20660;-60
2023/08/30 07:49:45;;;;;;;8.95;2.03;;;14.00;99.90;;;;;;4965501;28;20059;-60
2023/08/30 07:52:12;;;;;;;9.52;2.70;;;14.10;99.90;;;;;;4964610;28;20054;-60
2023/08/30 07:54:40;;;;;;;12.38;2.42;;;14.00;99.90;;;;;;4964885;28;20057;-59
2023/08/30 07:57:07;;;;;;;11.25;2.78;;;13.90;99.90;;;;;;4965071;28;20410;-59
2023/08/30 07:59:36;;;;;;;13.18;3.38;;;14.10;99.90;;;;;;4963786;28;20074;-60
2023/08/30 08:02:07;;;;;;;8.95;2.63;;;14.20;99.90;;;;;;4965901;28;20050;-61
2023/08/30 08:04:35;;;;;;;16.58;3.25;;;14.40;99.90;;;;;;4945402;28;20649;-59
2023/08/30 08:07:03;;;;;;;8.00;2.28;;;14.40;99.90;;;;;;4966875;28;20061;-59
2023/08/30 08:09:31;;;;;;;7.95;2.38;;;14.50;99.90;;;;;;4966819;28;20050;-60
2023/08/30 08:11:58;;;;;;;12.85;3.03;;;14.40;99.90;;;;;;4966934;28;20101;-60
2023/08/30 08:14:24;;;;;;;11.80;2.63;;;14.30;99.90;;;;;;4966467;28;20194;-58
2023/08/30 08:16:52;;;;;;;13.30;3.55;;;14.30;99.90;;;;;;4966257;28;20050;-60
2023/08/30 08:19:20;;;;;;;13.35;3.30;;;14.40;99.90;;;;;;4966960;28;20050;-60
2023/08/30 08:21:53;;;;;;;9.18;3.15;;;14.40;99.90;;;;;;4959457;28;20078;-60
2023/08/30 08:24:20;;;;;;;20.95;3.30;;;14.50;99.90;;;;;;4966219;28;20626;-59
2023/08/30 08:26:47;;;;;;;16.63;2.95;;;14.60;99.90;;;;;;4966712;28;20562;-60
2023/08/30 08:29:14;;;;;;;9.32;2.85;;;14.60;99.90;;;;;;4965421;28;20050;-61
2023/08/30 08:31:41;;;;;;;12.88;3.42;;;14.70;99.90;;;;;;4966072;28;20047;-58
2023/08/30 08:34:11;;;;;;;10.52;3.17;;;14.70;99.90;;;;;;4966714;28;20117;-59
2023/08/30 08:36:39;;;;;;;7.68;2.33;;;14.80;99.90;;;;;;4967133;28;20537;-59
2023/08/30 08:39:06;;;;;;;14.27;2.85;;;14.80;99.90;;;;;;4968233;28;20089;-61
2023/08/30 08:41:41;;;;;;;10.57;2.63;;;15.00;99.90;;;;;;4966596;28;20094;-61
2023/08/30 08:44:09;;;;;;;11.18;3.00;;;15.10;99.90;;;;;;4968043;28;20062;-59
2023/08/30 08:46:38;;;;;;;11.32;3.95;;;15.20;99.90;;;;;;4968604;28;20042;-60
2023/08/30 08:49:10;;;;;;;7.80;2.35;;;15.30;99.90;;;;;;4968251;28;20051;-59
2023/08/30 08:51:38;;;;;;;13.63;2.42;;;15.40;99.90;;;;;;4959496;28;20625;-58
2023/08/30 08:54:05;;;;;;;12.07;2.95;;;15.60;99.90;;;;;;4967337;28;20065;-59
2023/08/30 08:56:33;;;;;;;13.10;2.88;;;15.70;99.90;;;;;;4966374;28;20530;-59
2023/08/30 08:59:01;;;;;;;11.65;2.38;;;15.70;99.90;;;;;;4967193;28;20046;-59
2023/08/30 09:01:27;;;;;;;6.85;2.05;;;15.70;99.90;;;;;;4967933;28;20039;-60
2023/08/30 09:04:07;;;;;;;15.95;3.50;;;15.60;99.90;;;;;;4967463;28;20046;-60
2023/08/30 09:06:35;;;;;;;9.07;2.97;;;15.50;99.90;;;;;;4967547;28;20051;-60
2023/08/30 09:09:03;;;;;;;9.88;2.50;;;15.50;99.90;;;;;;4967644;28;20050;-60
2023/08/30 09:11:31;;;;;;;8.75;2.17;;;15.50;99.90;;;;;;4970706;28;20051;-60
2023/08/30 09:14:16;;;;;;;13.43;2.53;;;15.60;99.90;;;;;;4971385;28;20046;-60
2023/08/30 09:16:53;;;;;;;6.93;2.60;;;15.50;99.90;;;;;;4971098;28;20391;-60
2023/08/30 09:19:20;;;;;;;16.45;3.55;;;15.50;99.90;;;;;;4971201;28;20568;-60
2023/08/30 09:21:54;;;;;;;11.38;2.90;;;15.70;99.90;;;;;;4971247;28;20105;-60
2023/08/30 09:24:21;;;;;;;11.02;1.98;;;15.80;99.90;;;;;;4971243;28;20425;-60
2023/08/30 09:26:49;;;;;;;11.20;3.70;;;16.00;99.90;;;;;;4971216;28;20051;-60
2023/08/30 09:29:19;;;;;;;12.32;2.92;;;16.00;99.90;;;;;;4971444;28;20078;-59
2023/08/30 09:31:46;;;;;;;15.27;2.75;;;16.10;99.90;;;;;;4953219;28;20521;-59
2023/08/30 09:34:13;;;;;;;8.38;3.53;;;16.20;99.90;;;;;;4966198;28;20598;-60
2023/08/30 09:36:41;;;;;;;7.45;2.00;;;16.50;99.90;;;;;;4970866;28;20399;-59
2023/08/30 09:39:12;;;;;;;5.28;1.67;;;16.80;99.90;;;;;;4971213;28;20097;-59
2023/08/30 09:41:42;;;;;;;10.05;2.50;;;16.90;99.90;;;;;;4969638;28;20051;-59
2023/08/30 09:44:13;;;;;;;11.85;1.90;;;17.20;99.90;;;;;;4979834;28;20055;-59
2023/08/30 09:46:44;;;;;;;11.15;2.50;;;17.20;99.90;;;;;;4970233;28;20071;-60
2023/08/30 09:49:22;;;;;;;6.93;2.10;;;17.30;99.90;;;;;;4970772;28;20043;-59
2023/08/30 09:51:51;;;;;;;7.53;1.73;;;17.30;99.90;;;;;;4953506;28;20059;-60
2023/08/30 09:54:23;;;;;;;8.10;2.45;;;17.70;99.90;;;;;;4962664;28;20097;-60
2023/08/30 09:56:53;;;;;;;4.72;2.58;;;18.10;99.90;;;;;;4967388;28;20078;-60
2023/08/30 09:59:20;;;;;;;14.93;3.63;;;17.70;99.90;;;;;;4953570;28;20463;-60
2023/08/30 10:01:48;;;;;;;6.68;2.40;;;17.30;99.90;;;;;;4624927;28;10000052;-59
2023/08/30 10:04:15;;;;;;;8.02;2.05;;;17.50;99.90;;;;;;4967032;28;20576;-59
2023/08/30 10:06:42;;;;;;;7.55;1.98;;;17.70;99.90;;;;;;4969526;28;20046;-59
2023/08/30 10:09:09;;;;;;;7.15;2.03;;;17.70;99.90;;;;;;4969400;28;20454;-59
2023/08/30 10:11:36;;;;;;;10.02;1.85;;;17.90;99.90;;;;;;4971810;28;20117;-60
2023/08/30 10:14:04;;;;;;;6.05;1.67;;;17.90;99.90;;;;;;4958834;28;20518;-59
2023/08/30 10:16:43;;;;;;;5.03;1.38;;;17.80;99.90;;;;;;4952839;28;20054;-59
2023/08/30 10:19:24;;;;;;;7.05;2.30;;;17.70;99.90;;;;;;4969584;28;20121;-60
2023/08/30 10:22:04;;;;;;;3.53;1.10;;;17.80;99.90;;;;;;4968319;28;20113;-61
2023/08/30 10:24:56;;;;;;;4.97;1.65;;;17.80;99.90;;;;;;4958600;28;20043;-61
2023/08/30 10:27:37;;;;;;;6.10;1.50;;;17.70;99.90;;;;;;4968691;28;20752;-60
2023/08/30 10:30:05;;;;;;;3.30;1.33;;;17.90;99.90;;;;;;4968092;28;20470;-59
2023/08/30 10:32:32;;;;;;;7.57;2.08;;;18.30;99.90;;;;;;4967665;28;20532;-60
2023/08/30 10:35:01;;;;;;;5.93;1.20;;;18.20;99.90;;;;;;4967823;28;20268;-61
2023/08/30 10:37:28;;;;;;;7.28;1.20;;;18.00;99.90;;;;;;4965069;28;20137;-61
2023/08/30 10:40:02;;;;;;;3.85;1.27;;;17.90;99.90;;;;;;4977362;28;20624;-60
2023/08/30 10:42:29;;;;;;;7.03;1.30;;;17.60;99.90;;;;;;4961982;28;20050;-59
2023/08/30 10:45:00;;;;;;;11.15;1.80;;;17.70;99.90;;;;;;4948396;28;20498;-61
2023/08/30 10:47:31;;;;;;;4.57;1.13;;;17.70;99.90;;;;;;4958931;28;20073;-59
2023/08/30 10:50:04;;;;;;;5.63;1.30;;;17.80;99.90;;;;;;4970110;28;20137;-60
2023/08/30 10:52:31;;;;;;;6.60;1.40;;;17.90;99.90;;;;;;4965568;28;20054;-60
2023/08/30 10:55:14;;;;;;;6.38;1.40;;;18.00;99.90;;;;;;4965402;28;20046;-64
2023/08/30 10:57:43;;;;;;;4.68;1.08;;;18.00;99.90;;;;;;4965936;28;20047;-60
2023/08/30 11:00:29;;;;;;;11.68;1.77;;;18.10;99.90;;;;;;4950567;28;20046;-59
2023/08/30 11:02:56;;;;;;;6.30;1.65;;;18.20;99.90;;;;;;4950404;28;20053;-59
2023/08/30 11:05:24;;;;;;;4.53;1.42;;;18.40;99.90;;;;;;4968246;28;20055;-60
2023/08/30 11:07:52;;;;;;;7.05;1.73;;;18.40;99.90;;;;;;4967911;28;20125;-60
2023/08/30 11:10:19;;;;;;;6.53;1.75;;;18.40;99.90;;;;;;4970361;28;20046;-62
2023/08/30 11:12:46;;;;;;;4.75;1.40;;;18.40;99.90;;;;;;4967162;28;20042;-59
2023/08/30 11:15:14;;;;;;;4.53;1.50;;;18.40;99.90;;;;;;4967046;28;20141;-60
2023/08/30 11:17:42;;;;;;;6.32;1.10;;;18.50;99.90;;;;;;4960292;28;20043;-59
2023/08/30 11:20:19;;;;;;;6.68;1.50;;;18.50;99.90;;;;;;4967734;28;20157;-59
2023/08/30 11:22:47;;;;;;;5.97;1.63;;;18.40;99.90;;;;;;4967500;28;20042;-58
2023/08/30 11:25:15;;;;;;;3.40;1.30;;;18.50;99.90;;;;;;4969036;28;20047;-59
2023/08/30 11:27:42;;;;;;;4.68;1.27;;;18.60;99.90;;;;;;4967079;28;20047;-59
2023/08/30 11:30:10;;;;;;;10.18;1.90;;;18.60;99.90;;;;;;4964335;28;20061;-59
2023/08/30 11:32:42;;;;;;;12.93;3.33;;;18.70;99.90;;;;;;4967615;28;20049;-60
2023/08/30 11:35:10;;;;;;;6.72;2.50;;;18.80;99.90;;;;;;4973329;28;20129;-60
2023/08/30 11:37:37;;;;;;;5.35;1.73;;;18.80;99.90;;;;;;4967158;28;20061;-59
2023/08/30 11:40:06;;;;;;;6.93;2.03;;;18.60;99.90;;;;;;4970103;28;20054;-61
2023/08/30 11:42:33;;;;;;;3.97;1.20;;;18.70;99.90;;;;;;4968819;28;20130;-60
2023/08/30 11:45:00;;;;;;;7.97;1.10;;;18.60;99.90;;;;;;4952997;28;20532;-64
2023/08/30 11:47:26;;;;;;;2.50;1.17;;;18.60;99.90;;;;;;4957423;28;20479;-60
2023/08/30 11:49:57;;;;;;;5.22;1.52;;;18.70;99.90;;;;;;4950366;28;20134;-59
2023/08/30 11:52:24;;;;;;;9.65;1.95;;;18.50;99.90;;;;;;4945644;28;20507;-60
2023/08/30 11:54:51;;;;;;;7.03;1.75;;;18.60;99.90;;;;;;4949883;28;20069;-61
2023/08/30 11:57:18;;;;;;;4.43;1.63;;;18.60;99.90;;;;;;4951316;28;20129;-60
2023/08/30 11:59:45;;;;;;;11.57;2.20;;;18.80;99.90;;;;;;4967491;28;20047;-61
2023/08/30 12:02:12;;;;;;;5.15;1.65;;;19.00;99.90;;;;;;4950787;28;20584;-60
2023/08/30 12:04:41;;;;;;;3.90;1.23;;;19.10;99.90;;;;;;4966117;28;20043;-62
2023/08/30 12:07:21;;;;;;;7.45;1.77;;;19.00;99.90;;;;;;4967791;28;20054;-62
2023/08/30 12:09:48;;;;;;;3.63;1.40;;;18.90;99.90;;;;;;4966801;28;20046;-60
2023/08/30 12:12:15;;;;;;;5.20;1.50;;;18.90;99.90;;;;;;4967094;28;20054;-59
2023/08/30 12:14:42;;;;;;;4.43;1.77;;;18.90;99.90;;;;;;4967277;28;20046;-60
2023/08/30 12:17:12;;;;;;;3.33;0.95;;;18.90;99.90;;;;;;4965300;28;20051;-59
2023/08/30 12:19:40;;;;;;;2.10;0.70;;;18.70;99.90;;;;;;4967738;28;20399;-60
2023/08/30 12:22:07;;;;;;;4.68;1.10;;;18.60;99.90;;;;;;4966685;28;20567;-61
2023/08/30 12:24:46;;;;;;;2.67;0.75;;;18.70;99.90;;;;;;4966571;28;20082;-61
2023/08/30 12:27:14;;;;;;;4.88;0.90;;;18.70;99.90;;;;;;4966342;28;20043;-60
2023/08/30 12:29:41;;;;;;;5.28;0.90;;;18.70;99.90;;;;;;4966768;28;20778;-61
2023/08/30 12:32:08;;;;;;;7.45;1.42;;;18.80;99.90;;;;;;4966619;28;20070;-60
2023/08/30 12:34:35;;;;;;;6.40;1.15;;;19.00;99.90;;;;;;4966349;28;20043;-61
2023/08/30 12:37:04;;;;;;;6.03;0.90;;;19.20;99.90;;;;;;4949570;28;20137;-61
2023/08/30 12:39:31;;;;;;;3.63;0.88;;;19.30;99.90;;;;;;4966431;28;20528;-60
2023/08/30 12:41:58;;;;;;;3.58;1.58;;;19.40;99.90;;;;;;4956780;28;20174;-60
2023/08/30 12:44:25;;;;;;;4.82;0.75;;;19.50;99.90;;;;;;4966496;28;20062;-58
2023/08/30 12:46:52;;;;;;;3.53;1.38;;;19.50;99.90;;;;;;4970134;28;20410;-58
2023/08/30 12:49:19;;;;;;;2.58;0.90;;;19.30;99.90;;;;;;4971047;28;20055;-59